Time;durP1;ratioP1;P1;durP2;ratioP2;P2;SDS_P1;SDS_P2;PMS_P1;PMS_P2;Temp;Humidity;BMP_temperature;BMP_pressure;BME280_temperature;BME280_humidity;BME280_pressure;Samples;Min_cycle;Max_cycle;Signal;HPM_P1;HPM_P2
2023/10/20 00:00:33;;;;;;;;;;;20.60;81.50;;;;;;5026544;28;42968;-77
2023/10/20 00:02:58;;;;;;;;;;;19.80;81.00;;;;;;5026660;28;42944;-78
2023/10/20 00:05:24;;;;;;;;;;;19.90;80.80;;;;;;5026668;28;42895;-78
2023/10/20 00:07:50;;;;;;;;;;;19.90;80.50;;;;;;5024836;28;42761;-77
2023/10/20 00:10:16;;;;;;;;;;;19.80;80.50;;;;;;5025724;28;43848;-77
2023/10/20 00:12:42;;;;;;;;;;;20.00;81.00;;;;;;5024854;28;43080;-78
2023/10/20 00:15:13;;;;;;;;;;;20.00;80.90;;;;;;5025967;28;43383;-77
2023/10/20 00:17:42;;;;;;;;;;;19.90;80.10;;;;;;5026411;28;42948;-77
2023/10/20 00:20:09;;;;;;;;;;;19.70;78.90;;;;;;5025572;28;43564;-76
2023/10/20 00:22:35;;;;;;;;;;;19.70;80.40;;;;;;5021173;28;43115;-78
2023/10/20 00:25:00;;;;;;;;;;;19.80;80.70;;;;;;5024638;28;43237;-78
2023/10/20 00:27:26;;;;;;;;;;;19.70;80.80;;;;;;5025769;28;43121;-77
2023/10/20 00:29:51;;;;;;;;;;;19.90;81.20;;;;;;5025739;28;42905;-78
2023/10/20 00:32:19;;;;;;;;;;;19.80;80.60;;;;;;5025656;28;42917;-77
2023/10/20 00:34:44;;;;;;;;;;;19.90;81.00;;;;;;5025421;28;43433;-76
2023/10/20 00:37:10;;;;;;;;;;;19.80;81.00;;;;;;5025528;28;42853;-77
2023/10/20 00:39:36;;;;;;;;;;;19.80;80.70;;;;;;5025069;28;43930;-77
2023/10/20 00:42:02;;;;;;;;;;;19.80;80.60;;;;;;5025975;28;42970;-77
2023/10/20 00:44:28;;;;;;;;;;;19.80;80.90;;;;;;5025837;28;44607;-77
2023/10/20 00:46:53;;;;;;;;;;;19.90;80.60;;;;;;5025810;28;43082;-77
2023/10/20 00:49:19;;;;;;;;;;;19.90;80.70;;;;;;5025226;28;43814;-77
2023/10/20 00:51:44;;;;;;;;;;;19.80;81.00;;;;;;5024748;28;42894;-78
2023/10/20 00:54:13;;;;;;;;;;;19.90;81.00;;;;;;5024831;28;43511;-78
2023/10/20 00:56:42;;;;;;;;;;;19.80;80.80;;;;;;5025368;28;42794;-77
2023/10/20 00:59:08;;;;;;;;;;;19.80;78.80;;;;;;5024626;28;44053;-76
2023/10/20 01:01:34;;;;;;;;;;;19.80;80.80;;;;;;5025567;28;42995;-76
2023/10/20 01:04:00;;;;;;;;;;;19.80;81.00;;;;;;5025639;28;43403;-77
2023/10/20 01:06:25;;;;;;;;;;;19.90;81.20;;;;;;5025657;28;42873;-77
2023/10/20 01:08:58;;;;;;;;;;;19.90;81.20;;;;;;5024672;28;43371;-76
2023/10/20 01:11:23;;;;;;;;;;;20.10;79.10;;;;;;5025370;28;43015;-77
2023/10/20 01:13:50;;;;;;;;;;;20.00;81.10;;;;;;5007354;28;45186;-77
2023/10/20 01:16:16;;;;;;;;;;;19.90;81.10;;;;;;5025356;28;43000;-76
2023/10/20 01:18:42;;;;;;;;;;;19.80;80.60;;;;;;5025278;28;42836;-74
2023/10/20 01:21:08;;;;;;;;;;;19.90;80.70;;;;;;5025236;28;42775;-76
2023/10/20 01:23:33;;;;;;;;;;;20.00;81.30;;;;;;5025626;28;43022;-77
2023/10/20 01:25:59;;;;;;;;;;;19.80;80.50;;;;;;5025042;28;43037;-78
2023/10/20 01:28:24;;;;;;;;;;;19.80;81.00;;;;;;5024925;28;44251;-77
2023/10/20 01:30:50;;;;;;;;;;;19.80;81.10;;;;;;5024974;28;43095;-77
2023/10/20 01:33:15;;;;;;;;;;;19.90;80.80;;;;;;5024560;28;42968;-76
2023/10/20 01:35:41;;;;;;;;;;;19.90;81.20;;;;;;5024649;28;42941;-76
2023/10/20 01:38:06;;;;;;;;;;;19.80;81.10;;;;;;5023826;28;43028;-78
2023/10/20 01:40:32;;;;;;;;;;;19.90;80.80;;;;;;5024455;28;43047;-76
2023/10/20 01:42:57;;;;;;;;;;;19.90;81.10;;;;;;5024613;28;42873;-77
2023/10/20 01:45:23;;;;;;;;;;;19.90;80.80;;;;;;5025133;28;42937;-77
2023/10/20 01:47:49;;;;;;;;;;;19.90;80.80;;;;;;5024515;28;43030;-78
2023/10/20 01:50:15;;;;;;;;;;;19.90;81.30;;;;;;5029536;28;42866;-77
2023/10/20 01:52:40;;;;;;;;;;;19.70;81.10;;;;;;5019830;28;43221;-74
2023/10/20 01:55:06;;;;;;;;;;;19.90;81.00;;;;;;5024865;28;43427;-76
2023/10/20 01:57:32;;;;;;;;;;;20.00;80.80;;;;;;5025133;28;43052;-76
2023/10/20 01:59:58;;;;;;;;;;;19.90;81.10;;;;;;5025720;28;42814;-76
2023/10/20 02:02:23;;;;;;;;;;;19.70;81.20;;;;;;5022891;28;42903;-75
2023/10/20 02:04:49;;;;;;;;;;;19.60;80.50;;;;;;5024967;28;43131;-76
2023/10/20 02:07:14;;;;;;;;;;;19.80;80.50;;;;;;5025716;28;43554;-76
2023/10/20 02:09:40;;;;;;;;;;;19.80;81.10;;;;;;5025124;28;43029;-76
2023/10/20 02:12:05;;;;;;;;;;;20.10;81.10;;;;;;5005519;28;43445;-77
2023/10/20 02:14:31;;;;;;;;;;;19.80;80.80;;;;;;5006257;28;42940;-76
2023/10/20 02:16:57;;;;;;;;;;;20.00;81.20;;;;;;5005640;28;43448;-76
2023/10/20 02:19:23;;;;;;;;;;;19.90;80.60;;;;;;5005454;28;42935;-75
2023/10/20 02:21:48;;;;;;;;;;;19.80;81.00;;;;;;5024598;28;43822;-76
2023/10/20 02:24:14;;;;;;;;;;;19.90;81.20;;;;;;5024142;28;42900;-75
2023/10/20 02:26:40;;;;;;;;;;;19.90;80.70;;;;;;5026125;28;43870;-74
2023/10/20 02:29:06;;;;;;;;;;;19.90;80.60;;;;;;5022698;28;42929;-76
2023/10/20 02:31:31;;;;;;;;;;;19.90;81.20;;;;;;5023374;28;42979;-75
2023/10/20 02:33:57;;;;;;;;;;;19.80;81.00;;;;;;5023810;28;42980;-76
2023/10/20 02:36:22;;;;;;;;;;;19.90;81.10;;;;;;5023478;28;43261;-76
2023/10/20 02:38:51;;;;;;;;;;;19.80;81.00;;;;;;5024844;28;43008;-77
2023/10/20 02:41:17;;;;;;;;;;;19.70;81.00;;;;;;5005825;28;43471;-77
2023/10/20 02:43:43;;;;;;;;;;;19.10;80.20;;;;;;5021195;28;42906;-76
2023/10/20 02:46:11;;;;;;;;;;;19.80;81.50;;;;;;5004146;28;43345;-76
2023/10/20 02:48:37;;;;;;;;;;;19.90;80.70;;;;;;5016103;28;42930;-76
2023/10/20 02:51:09;;;;;;;;;;;19.70;81.10;;;;;;5024504;28;43577;-76
2023/10/20 02:53:35;;;;;;;;;;;20.10;79.70;;;;;;5006982;28;43068;-76
2023/10/20 02:56:01;;;;;;;;;;;19.80;80.90;;;;;;5023714;28;43763;-76
2023/10/20 02:58:27;;;;;;;;;;;19.80;80.70;;;;;;5024386;28;43016;-76
2023/10/20 03:00:54;;;;;;;;;;;19.80;81.30;;;;;;5023720;28;43028;-76
2023/10/20 03:03:20;;;;;;;;;;;19.80;80.70;;;;;;5023872;28;43204;-75
2023/10/20 03:05:45;;;;;;;;;;;19.80;80.70;;;;;;5023701;28;43136;-77
2023/10/20 03:08:11;;;;;;;;;;;19.80;80.70;;;;;;5023984;28;42958;-77
2023/10/20 03:10:36;;;;;;;;;;;19.90;81.20;;;;;;5024112;28;43664;-76
2023/10/20 03:13:04;;;;;;;;;;;19.90;80.70;;;;;;5023807;28;42970;-76
2023/10/20 03:15:30;;;;;;;;;;;19.90;81.20;;;;;;5026108;28;44551;-76
2023/10/20 03:17:56;;;;;;;;;;;19.70;81.10;;;;;;5026778;28;43039;-76
2023/10/20 03:20:28;;;;;;;;;;;20.40;81.50;;;;;;5027738;28;43539;-76
2023/10/20 03:22:54;;;;;;;;;;;19.80;81.20;;;;;;5013524;28;43017;-75
2023/10/20 03:25:20;;;;;;;;;;;19.90;81.20;;;;;;5008070;28;42893;-76
2023/10/20 03:27:46;;;;;;;;;;;19.80;80.60;;;;;;5006372;28;42748;-75
2023/10/20 03:30:12;;;;;;;;;;;19.90;81.30;;;;;;5021547;28;43460;-76
2023/10/20 03:32:37;;;;;;;;;;;19.90;81.00;;;;;;5026882;28;43117;-76
2023/10/20 03:35:03;;;;;;;;;;;19.90;81.20;;;;;;5025939;28;42862;-76
2023/10/20 03:37:29;;;;;;;;;;;19.70;80.60;;;;;;5024779;28;42965;-77
2023/10/20 03:39:54;;;;;;;;;;;19.80;80.50;;;;;;5025898;28;42980;-77
2023/10/20 03:42:21;;;;;;;;;;;19.90;81.20;;;;;;5025419;28;43093;-76
2023/10/20 03:44:48;;;;;;;;;;;19.80;81.00;;;;;;5026905;28;43588;-77
2023/10/20 03:47:17;;;;;;;;;;;19.80;81.30;;;;;;5024831;28;42961;-76
2023/10/20 03:49:43;;;;;;;;;;;19.80;79.00;;;;;;5024764;28;44117;-74
2023/10/20 03:52:11;;;;;;;;;;;19.80;80.80;;;;;;5019414;28;42863;-78
2023/10/20 03:54:38;;;;;;;;;;;19.70;80.60;;;;;;5005381;28;43812;-76
2023/10/20 03:57:04;;;;;;;;;;;19.80;81.10;;;;;;5006107;28;43034;-76
2023/10/20 03:59:30;;;;;;;;;;;19.80;81.00;;;;;;5011578;28;43661;-76
2023/10/20 04:01:56;;;;;;;;;;;20.10;81.10;;;;;;5017290;28;43118;-75
2023/10/20 04:04:22;;;;;;;;;;;19.80;81.20;;;;;;5025100;28;42912;-76
2023/10/20 04:06:49;;;;;;;;;;;20.10;81.40;;;;;;5025687;28;42855;-75
2023/10/20 04:09:17;;;;;;;;;;;19.90;80.80;;;;;;5024743;28;45363;-77
2023/10/20 04:11:43;;;;;;;;;;;19.70;81.00;;;;;;5027295;28;42945;-76
2023/10/20 04:14:09;;;;;;;;;;;19.90;81.10;;;;;;5035893;28;42945;-76
2023/10/20 04:16:42;;;;;;;;;;;19.90;81.20;;;;;;5037009;28;42799;-76
2023/10/20 04:19:12;;;;;;;;;;;19.80;81.20;;;;;;5026173;28;43725;-76
2023/10/20 04:21:43;;;;;;;;;;;19.80;81.30;;;;;;5008013;28;43005;-76
2023/10/20 04:24:09;;;;;;;;;;;20.00;79.00;;;;;;5009606;28;42859;-76
2023/10/20 04:26:36;;;;;;;;;;;19.90;81.50;;;;;;5005616;28;43059;-76
2023/10/20 04:51:08;;;;;;;;;;;19.80;79.20;;;;;;5016237;28;43160;-75
2023/10/20 04:56:32;;;;;;;;;;;19.80;79.90;;;;;;5012735;28;43171;-75
2023/10/20 04:58:59;;;;;;;;;;;20.80;80.40;;;;;;5006808;28;42907;-75
2023/10/20 05:01:39;;;;;;;;;;;19.90;81.00;;;;;;5005966;28;43694;-77
2023/10/20 05:05:11;;;;;;;;;;;19.90;79.70;;;;;;5014426;28;43047;-76
2023/10/20 05:07:08;;;;;;;;;;;19.80;80.20;;;;;;5006131;28;43029;-79
2023/10/20 05:09:40;;;;;;;;;;;19.80;80.00;;;;;;5018736;28;42913;-79
2023/10/20 05:12:06;;;;;;;;;;;20.00;82.10;;;;;;5025022;28;43504;-76
2023/10/20 05:14:32;;;;;;;;;;;19.90;83.10;;;;;;5025281;28;42991;-77
2023/10/20 05:16:57;;;;;;;;;;;19.80;82.90;;;;;;5024846;28;42895;-77
2023/10/20 05:19:23;;;;;;;;;;;19.90;82.60;;;;;;5025238;28;42939;-77
2023/10/20 05:21:49;;;;;;;;;;;20.00;83.20;;;;;;5025955;28;42956;-77
2023/10/20 05:24:14;;;;;;;;;;;20.10;82.90;;;;;;5025834;28;42863;-77
2023/10/20 05:26:40;;;;;;;;;;;20.10;83.60;;;;;;5024718;28;42988;-77
2023/10/20 05:29:07;;;;;;;;;;;20.10;83.50;;;;;;5025195;28;42957;-77
2023/10/20 05:31:34;;;;;;;;;;;19.90;84.30;;;;;;5025719;28;42802;-77
2023/10/20 05:33:59;;;;;;;;;;;19.90;83.70;;;;;;5025489;28;42827;-77
2023/10/20 05:36:25;;;;;;;;;;;20.00;84.30;;;;;;5025007;28;43521;-76
2023/10/20 05:38:50;;;;;;;;;;;19.90;84.20;;;;;;5025159;28;42890;-77
2023/10/20 05:41:16;;;;;;;;;;;19.80;84.50;;;;;;5024150;28;42964;-78
2023/10/20 05:43:41;;;;;;;;;;;19.90;84.60;;;;;;5025351;28;42812;-77
2023/10/20 05:46:15;;;;;;;;;;;20.00;84.30;;;;;;5025205;28;42851;-77
2023/10/20 05:48:40;;;;;;;;;;;19.80;82.60;;;;;;5025586;28;42897;-77
2023/10/20 05:51:06;;;;;;;;;;;19.90;84.30;;;;;;5025592;28;42971;-77
2023/10/20 05:53:31;;;;;;;;;;;20.00;84.40;;;;;;5025376;28;42885;-77
2023/10/20 05:55:57;;;;;;;;;;;20.00;84.50;;;;;;5025590;28;43491;-77
2023/10/20 05:58:23;;;;;;;;;;;19.90;85.10;;;;;;5024682;28;43020;-78
2023/10/20 06:00:48;;;;;;;;;;;19.90;84.90;;;;;;5025797;28;43014;-78
2023/10/20 06:03:14;;;;;;;;;;;19.90;85.10;;;;;;5025618;28;42929;-77
2023/10/20 06:05:40;;;;;;;;;;;20.10;84.60;;;;;;5024763;28;43735;-77
2023/10/20 06:08:05;;;;;;;;;;;20.00;84.60;;;;;;5025775;28;42940;-78
2023/10/20 06:10:31;;;;;;;;;;;20.00;84.70;;;;;;5025075;28;42905;-78
2023/10/20 06:12:57;;;;;;;;;;;20.00;85.10;;;;;;5025405;28;42890;-77
2023/10/20 06:15:22;;;;;;;;;;;20.10;85.20;;;;;;5025192;28;42953;-77
2023/10/20 06:17:49;;;;;;;;;;;20.00;84.70;;;;;;5007479;28;43066;-76
2023/10/20 06:20:15;;;;;;;;;;;20.00;85.20;;;;;;5025055;28;43863;-77
2023/10/20 06:22:41;;;;;;;;;;;20.00;84.70;;;;;;5026073;28;42903;-78
2023/10/20 06:25:12;;;;;;;;;;;19.90;85.40;;;;;;5025188;28;43730;-77
2023/10/20 06:27:38;;;;;;;;;;;19.90;85.00;;;;;;5025351;28;43064;-77
2023/10/20 06:30:12;;;;;;;;;;;19.80;85.20;;;;;;5024385;28;43658;-76
2023/10/20 06:32:42;;;;;;;;;;;20.00;84.60;;;;;;5024714;28;42969;-78
2023/10/20 06:35:09;;;;;;;;;;;20.10;83.50;;;;;;5026755;28;43507;-77
2023/10/20 06:37:46;;;;;;;;;;;20.00;85.40;;;;;;5023470;28;43096;-77
2023/10/20 06:40:15;;;;;;;;;;;20.20;85.60;;;;;;5024783;28;43689;-76
2023/10/20 06:42:44;;;;;;;;;;;19.90;85.30;;;;;;5026858;28;42893;-77
2023/10/20 06:45:13;;;;;;;;;;;20.00;83.50;;;;;;5026629;28;42937;-77
2023/10/20 06:47:42;;;;;;;;;;;20.10;86.20;;;;;;5028563;28;42851;-77
2023/10/20 06:50:10;;;;;;;;;;;19.80;84.50;;;;;;5026918;28;42892;-76
2023/10/20 06:52:35;;;;;;;;;;;20.10;85.20;;;;;;5028054;28;42929;-76
2023/10/20 06:55:02;;;;;;;;;;;20.00;85.30;;;;;;5027663;28;44389;-77
2023/10/20 06:57:28;;;;;;;;;;;20.00;85.20;;;;;;5027716;28;42868;-76
2023/10/20 06:59:53;;;;;;;;;;;19.90;85.60;;;;;;5009992;28;43477;-77
2023/10/20 07:02:19;;;;;;;;;;;20.00;85.70;;;;;;5028019;28;42976;-76
2023/10/20 07:04:44;;;;;;;;;;;20.00;86.00;;;;;;5027954;28;42913;-76
2023/10/20 07:07:13;;;;;;;;;;;20.00;85.90;;;;;;5028962;28;42791;-76
2023/10/20 07:09:40;;;;;;;;;;;20.10;86.10;;;;;;5027762;28;43392;-76
2023/10/20 07:12:06;;;;;;;;;;;20.00;86.00;;;;;;5028008;28;42840;-76
2023/10/20 07:14:33;;;;;;;;;;;20.10;86.70;;;;;;5027271;28;43373;-76
2023/10/20 07:17:01;;;;;;;;;;;20.20;86.80;;;;;;5027804;28;42986;-77
2023/10/20 07:19:27;;;;;;;;;;;20.00;86.90;;;;;;5027901;28;43675;-76
2023/10/20 07:21:53;;;;;;;;;;;20.00;86.60;;;;;;5027844;28;43119;-76
2023/10/20 07:24:19;;;;;;;;;;;19.90;87.10;;;;;;5027608;28;43063;-76
2023/10/20 07:26:45;;;;;;;;;;;19.90;87.00;;;;;;5028543;28;42958;-76
2023/10/20 07:29:12;;;;;;;;;;;20.00;86.90;;;;;;5027214;28;43455;-77
2023/10/20 07:31:39;;;;;;;;;;;20.00;87.10;;;;;;5027485;28;42946;-77
2023/10/20 07:34:09;;;;;;;;;;;19.90;87.00;;;;;;5009166;28;44195;-77
2023/10/20 07:36:35;;;;;;;;;;;20.10;86.70;;;;;;5027307;28;42983;-78
2023/10/20 07:39:01;;;;;;;;;;;20.00;86.60;;;;;;5027229;28;42865;-78
2023/10/20 07:41:26;;;;;;;;;;;20.10;87.00;;;;;;5026623;28;42914;-78
2023/10/20 07:43:52;;;;;;;;;;;19.90;86.90;;;;;;5026880;28;42963;-78
2023/10/20 07:46:18;;;;;;;;;;;20.00;87.00;;;;;;5025542;28;43009;-77
2023/10/20 07:48:44;;;;;;;;;;;20.10;87.10;;;;;;5026703;28;43038;-78
2023/10/20 07:51:09;;;;;;;;;;;20.00;87.50;;;;;;5026517;28;42952;-77
2023/10/20 07:53:35;;;;;;;;;;;20.00;86.80;;;;;;5025642;28;43500;-77
2023/10/20 07:56:00;;;;;;;;;;;20.10;86.80;;;;;;5025849;28;42951;-76
2023/10/20 07:58:26;;;;;;;;;;;20.00;87.30;;;;;;5026834;28;43405;-77
2023/10/20 08:00:52;;;;;;;;;;;20.00;87.10;;;;;;5026111;28;42930;-78
2023/10/20 08:03:17;;;;;;;;;;;20.00;87.20;;;;;;5026316;28;43016;-77
2023/10/20 08:05:43;;;;;;;;;;;19.80;87.50;;;;;;5026735;28;43025;-77
2023/10/20 08:08:08;;;;;;;;;;;20.10;87.40;;;;;;5026418;28;43595;-78
2023/10/20 08:10:35;;;;;;;;;;;19.90;87.00;;;;;;5026433;28;42988;-78
2023/10/20 08:13:02;;;;;;;;;;;20.20;87.60;;;;;;5026894;28;42847;-77
2023/10/20 08:15:28;;;;;;;;;;;20.30;87.80;;;;;;5026632;28;42952;-78
2023/10/20 08:17:55;;;;;;;;;;;19.90;87.20;;;;;;5026843;28;42728;-77
2023/10/20 08:20:21;;;;;;;;;;;20.00;88.20;;;;;;5026711;28;42912;-77
2023/10/20 08:22:47;;;;;;;;;;;20.00;87.50;;;;;;5026449;28;43674;-78
2023/10/20 08:25:13;;;;;;;;;;;20.20;87.50;;;;;;5026535;28;42980;-77
2023/10/20 08:27:38;;;;;;;;;;;20.00;88.20;;;;;;5026504;28;42884;-77
2023/10/20 08:30:04;;;;;;;;;;;20.00;88.10;;;;;;5027581;28;43008;-77
2023/10/20 08:32:30;;;;;;;;;;;20.10;87.80;;;;;;5025136;28;43630;-78
2023/10/20 08:34:55;;;;;;;;;;;19.80;88.20;;;;;;5025991;28;43077;-78
2023/10/20 08:37:21;;;;;;;;;;;20.00;87.70;;;;;;5026030;28;43070;-77
2023/10/20 08:39:46;;;;;;;;;;;20.10;87.90;;;;;;5007930;28;42945;-77
2023/10/20 08:42:18;;;;;;;;;;;20.10;87.90;;;;;;5025800;28;43881;-78
2023/10/20 08:44:45;;;;;;;;;;;20.00;86.10;;;;;;5025660;28;43008;-76
2023/10/20 08:47:12;;;;;;;;;;;20.00;88.30;;;;;;5026025;28;43575;-78
2023/10/20 08:49:38;;;;;;;;;;;20.00;88.50;;;;;;5026076;28;43036;-77
2023/10/20 08:52:04;;;;;;;;;;;20.00;87.90;;;;;;5007168;28;44143;-77
2023/10/20 08:54:30;;;;;;;;;;;19.90;88.00;;;;;;5025843;28;43061;-77
2023/10/20 08:56:55;;;;;;;;;;;20.10;88.60;;;;;;5025225;28;42941;-77
2023/10/20 08:59:21;;;;;;;;;;;20.10;88.50;;;;;;5025396;28;42915;-77
2023/10/20 09:01:47;;;;;;;;;;;20.00;87.80;;;;;;5024811;28;42866;-78
2023/10/20 09:04:25;;;;;;;;;;;20.00;88.50;;;;;;5025642;28;43039;-78
2023/10/20 09:06:52;;;;;;;;;;;20.00;86.10;;;;;;5026681;28;43531;-78
2023/10/20 09:09:19;;;;;;;;;;;20.10;88.30;;;;;;5028925;28;42849;-77
2023/10/20 09:11:45;;;;;;;;;;;20.20;88.60;;;;;;5029219;28;42842;-77
2023/10/20 09:14:12;;;;;;;;;;;20.10;88.50;;;;;;5027259;28;42837;-78
2023/10/20 09:16:38;;;;;;;;;;;20.10;88.50;;;;;;5026205;28;42901;-77
2023/10/20 09:19:04;;;;;;;;;;;20.10;88.70;;;;;;5025923;28;42909;-77
2023/10/20 09:21:29;;;;;;;;;;;20.00;88.70;;;;;;5026216;28;43345;-77
2023/10/20 09:24:02;;;;;;;;;;;19.90;88.70;;;;;;5025772;28;43000;-77
2023/10/20 09:26:29;;;;;;;;;;;20.00;86.50;;;;;;5024994;28;43431;-77
2023/10/20 09:28:55;;;;;;;;;;;20.00;88.40;;;;;;5025714;28;43017;-78
2023/10/20 09:31:22;;;;;;;;;;;20.00;88.80;;;;;;5025070;28;42988;-77
2023/10/20 09:33:48;;;;;;;;;;;20.00;88.40;;;;;;5025825;28;42794;-77
2023/10/20 09:36:14;;;;;;;;;;;20.00;88.50;;;;;;5024338;28;42888;-78
2023/10/20 09:38:43;;;;;;;;;;;19.90;89.10;;;;;;5025175;28;42945;-78
2023/10/20 09:41:13;;;;;;;;;;;20.20;89.20;;;;;;5024884;28;43408;-77
2023/10/20 09:43:48;;;;;;;;;;;20.10;88.80;;;;;;5025398;28;42986;-77
2023/10/20 09:46:32;;;;;;;;;;;20.00;87.20;;;;;;5025118;28;43259;-77
2023/10/20 09:49:00;;;;;;;;;;;20.00;87.20;;;;;;5025252;28;42893;-77
2023/10/20 09:51:26;;;;;;;;;;;20.10;89.30;;;;;;5007713;28;45503;-76
2023/10/20 09:53:52;;;;;;;;;;;19.90;89.70;;;;;;5025475;28;42872;-77
2023/10/20 09:56:19;;;;;;;;;;;19.90;89.30;;;;;;5025171;28;43101;-77
2023/10/20 09:58:44;;;;;;;;;;;19.90;89.70;;;;;;5025119;28;42988;-78
2023/10/20 10:01:14;;;;;;;;;;;20.10;90.00;;;;;;5025201;28;43706;-78
2023/10/20 10:03:41;;;;;;;;;;;19.90;87.60;;;;;;5025251;28;42926;-77
2023/10/20 10:06:12;;;;;;;;;;;20.10;89.80;;;;;;5025534;28;42943;-77
2023/10/20 10:08:39;;;;;;;;;;;20.00;87.60;;;;;;5025094;28;42859;-78
2023/10/20 10:11:37;;;;;;;;;;;20.00;89.60;;;;;;5023474;28;44885;-77
2023/10/20 10:14:04;;;;;;;;;;;19.90;87.20;;;;;;4991144;28;43208;-78
2023/10/20 10:16:30;;;;;;;;;;;20.00;89.00;;;;;;5024773;28;43468;-77
2023/10/20 10:19:06;;;;;;;;;;;20.10;89.20;;;;;;5025625;28;42896;-77
2023/10/20 10:21:32;;;;;;;;;;;20.00;87.60;;;;;;5025709;28;43341;-77
2023/10/20 10:24:17;;;;;;;;;;;20.10;89.50;;;;;;5026070;28;42876;-77
2023/10/20 10:26:46;;;;;;;;;;;20.00;87.60;;;;;;5028405;28;42935;-76
2023/10/20 10:29:12;;;;;;;;;;;20.00;87.60;;;;;;5028823;28;43213;-77
2023/10/20 10:31:38;;;;;;;;;;;20.10;89.40;;;;;;5027689;28;43347;-77
2023/10/20 10:34:04;;;;;;;;;;;20.00;89.40;;;;;;5028358;28;42933;-78
2023/10/20 10:36:30;;;;;;;;;;;20.10;89.90;;;;;;5027484;28;43259;-77
2023/10/20 10:38:57;;;;;;;;;;;20.00;90.00;;;;;;5027912;28;43068;-77
2023/10/20 10:41:23;;;;;;;;;;;20.00;89.80;;;;;;5009226;28;44379;-77
2023/10/20 10:43:53;;;;;;;;;;;20.00;89.70;;;;;;5010338;28;43185;-77
2023/10/20 10:46:18;;;;;;;;;;;20.10;89.70;;;;;;5027945;28;43915;-77
2023/10/20 10:48:45;;;;;;;;;;;20.10;89.70;;;;;;5028640;28;42950;-77
2023/10/20 10:51:10;;;;;;;;;;;20.10;89.80;;;;;;5028513;28;43718;-78
2023/10/20 10:53:38;;;;;;;;;;;20.20;90.00;;;;;;5027878;28;43001;-77
2023/10/20 10:56:04;;;;;;;;;;;20.00;90.10;;;;;;5027696;28;43815;-77
2023/10/20 10:58:30;;;;;;;;;;;20.20;90.00;;;;;;5027551;28;42881;-77
2023/10/20 11:00:56;;;;;;;;;;;20.10;90.10;;;;;;5027585;28;43838;-77
2023/10/20 11:03:22;;;;;;;;;;;20.10;90.00;;;;;;5027955;28;42957;-77
2023/10/20 11:05:48;;;;;;;;;;;20.10;90.10;;;;;;5027800;28;43951;-77
2023/10/20 11:08:13;;;;;;;;;;;20.10;90.00;;;;;;5027670;28;42984;-77
2023/10/20 11:10:45;;;;;;;;;;;20.10;90.00;;;;;;5027645;28;43436;-77
2023/10/20 11:13:13;;;;;;;;;;;20.10;90.00;;;;;;5021530;28;42817;-78
2023/10/20 11:15:39;;;;;;;;;;;20.10;90.00;;;;;;5015221;28;43690;-78
2023/10/20 11:18:06;;;;;;;;;;;20.20;90.60;;;;;;5027293;28;42854;-77
2023/10/20 11:20:32;;;;;;;;;;;20.10;90.00;;;;;;5017418;28;43739;-77
2023/10/20 11:22:58;;;;;;;;;;;20.00;90.40;;;;;;5017442;28;43042;-77
2023/10/20 11:25:27;;;;;;;;;;;20.10;90.30;;;;;;5015050;28;43577;-76
2023/10/20 11:27:56;;;;;;;;;;;20.00;89.20;;;;;;5016859;28;43190;-78
2023/10/20 11:30:31;;;;;;;;;;;20.10;90.40;;;;;;5017068;28;43797;-77
2023/10/20 11:32:57;;;;;;;;;;;20.10;88.90;;;;;;5017233;28;43068;-77
2023/10/20 11:35:24;;;;;;;;;;;20.00;90.40;;;;;;5014279;28;43427;-77
2023/10/20 11:37:53;;;;;;;;;;;20.00;90.20;;;;;;5013875;28;43085;-77
2023/10/20 11:40:19;;;;;;;;;;;20.20;89.00;;;;;;5021753;28;42885;-77
2023/10/20 11:42:44;;;;;;;;;;;20.50;90.60;;;;;;5018137;28;43022;-78
2023/10/20 11:45:10;;;;;;;;;;;20.10;90.30;;;;;;5018057;28;42993;-78
2023/10/20 11:47:36;;;;;;;;;;;20.00;90.20;;;;;;5592292;22;43453;-77
2023/10/20 11:50:02;;;;;;;;;;;20.20;90.50;;;;;;5036689;28;43475;-79
2023/10/20 11:52:28;;;;;;;;;;;20.20;90.40;;;;;;5020672;28;43027;-77
2023/10/20 11:54:53;;;;;;;;;;;20.00;90.20;;;;;;5036646;28;43414;-78
2023/10/20 11:57:19;;;;;;;;;;;20.20;90.30;;;;;;5037412;28;42925;-79
2023/10/20 11:59:44;;;;;;;;;;;19.90;90.30;;;;;;5035337;28;43624;-78
2023/10/20 12:02:10;;;;;;;;;;;20.10;90.30;;;;;;5038066;28;43054;-78
2023/10/20 12:04:35;;;;;;;;;;;20.00;90.30;;;;;;5021725;28;43163;-77
2023/10/20 12:07:01;;;;;;;;;;;20.20;90.60;;;;;;5037170;28;42900;-79
2023/10/20 12:09:26;;;;;;;;;;;20.10;90.40;;;;;;5035945;28;43890;-78
2023/10/20 12:11:52;;;;;;;;;;;20.10;90.30;;;;;;5039179;28;43011;-78
2023/10/20 12:14:18;;;;;;;;;;;20.10;90.20;;;;;;5731686;22;44039;-77
2023/10/20 12:16:45;;;;;;;;;;;20.20;90.30;;;;;;5027590;28;42989;-77
2023/10/20 12:19:11;;;;;;;;;;;20.10;90.20;;;;;;5028178;28;43032;-77
2023/10/20 12:34:53;;;;;;;;;;;20.20;88.40;;;;;;5065178;22;43058;-80
2023/10/20 12:37:19;;;;;;;;;;;20.10;88.40;;;;;;5044891;28;42953;-78
2023/10/20 12:39:44;;;;;;;;;;;20.20;89.00;;;;;;5037522;28;43586;-78
2023/10/20 12:42:10;;;;;;;;;;;20.10;88.40;;;;;;5026670;28;43298;-77
2023/10/20 12:44:35;;;;;;;;;;;20.10;89.70;;;;;;5026591;28;42906;-78
2023/10/20 12:47:01;;;;;;;;;;;20.10;88.40;;;;;;5033107;28;42944;-77
2023/10/20 12:49:26;;;;;;;;;;;20.00;88.30;;;;;;5035682;28;43041;-78
2023/10/20 12:57:03;;;;;;;;;;;20.20;87.80;;;;;;5103393;22;42989;-79
2023/10/20 12:59:29;;;;;;;;;;;20.20;88.30;;;;;;5024661;28;44562;-79
2023/10/20 13:01:55;;;;;;;;;;;20.20;88.10;;;;;;5027464;28;43037;-79
2023/10/20 13:04:21;;;;;;;;;;;20.20;88.50;;;;;;5025147;28;44957;-79
2023/10/20 13:06:47;;;;;;;;;;;20.30;88.70;;;;;;5008926;28;43066;-78
2023/10/20 13:09:12;;;;;;;;;;;20.10;88.50;;;;;;5026151;28;42953;-78
2023/10/20 13:11:39;;;;;;;;;;;20.20;88.70;;;;;;5026646;28;42924;-78
2023/10/20 13:14:04;;;;;;;;;;;20.20;88.00;;;;;;5026063;28;43543;-78
2023/10/20 13:16:30;;;;;;;;;;;20.10;88.50;;;;;;5026607;28;42984;-79
2023/10/20 13:18:55;;;;;;;;;;;20.10;88.20;;;;;;5026650;28;42876;-79
2023/10/20 13:21:21;;;;;;;;;;;20.00;87.80;;;;;;5026211;28;43177;-78
2023/10/20 13:23:46;;;;;;;;;;;20.10;88.30;;;;;;5007790;28;44882;-79
2023/10/20 13:26:12;;;;;;;;;;;20.20;87.80;;;;;;5024785;28;42976;-79
2023/10/20 13:28:37;;;;;;;;;;;20.10;87.60;;;;;;5026680;28;42965;-79
2023/10/20 13:37:09;;;;;;;;;;;20.10;85.30;;;;;;5023902;28;42912;-79
2023/10/20 13:44:38;;;;;;;;;;;20.40;86.80;;;;;;5004760;28;43428;-78
2023/10/20 13:47:04;;;;;;;;;;;20.10;87.20;;;;;;5005831;28;42965;-79
2023/10/20 13:49:30;;;;;;;;;;;20.20;87.80;;;;;;4987393;28;43472;-79
2023/10/20 13:51:56;;;;;;;;;;;20.10;87.90;;;;;;5006104;28;43047;-79
2023/10/20 13:54:22;;;;;;;;;;;20.00;87.60;;;;;;4995296;28;43036;-79
2023/10/20 13:56:47;;;;;;;;;;;20.10;87.90;;;;;;5006723;28;42887;-79
2023/10/20 13:59:15;;;;;;;;;;;20.10;87.80;;;;;;5071699;22;44377;-78
2023/10/20 14:01:41;;;;;;;;;;;20.00;88.40;;;;;;5045722;28;42981;-78
2023/10/20 14:04:07;;;;;;;;;;;20.10;87.90;;;;;;5049018;28;44012;-78
2023/10/20 14:06:32;;;;;;;;;;;20.10;88.40;;;;;;5052281;28;43063;-80
2023/10/20 14:08:58;;;;;;;;;;;20.00;88.60;;;;;;5045236;28;44077;-79
2023/10/20 14:11:24;;;;;;;;;;;20.20;88.10;;;;;;5030842;28;43068;-78
2023/10/20 14:13:49;;;;;;;;;;;20.20;88.20;;;;;;5025464;28;42972;-79
2023/10/20 14:16:15;;;;;;;;;;;20.20;88.20;;;;;;5024950;28;42948;-79
2023/10/20 14:18:40;;;;;;;;;;;20.10;88.20;;;;;;5025110;28;42939;-81
2023/10/20 14:21:06;;;;;;;;;;;20.40;89.10;;;;;;5040197;28;42830;-84
2023/10/20 14:23:31;;;;;;;;;;;20.20;88.40;;;;;;5045192;28;42906;-80
2023/10/20 14:25:57;;;;;;;;;;;20.20;88.40;;;;;;5045444;28;42913;-80
2023/10/20 14:28:23;;;;;;;;;;;20.10;88.90;;;;;;5045429;28;43653;-80
2023/10/20 14:30:55;;;;;;;;;;;20.00;89.10;;;;;;5045758;28;42754;-79
2023/10/20 14:33:22;;;;;;;;;;;20.10;87.00;;;;;;5029034;28;42823;-80
2023/10/20 14:35:48;;;;;;;;;;;20.10;89.00;;;;;;5025231;28;43093;-80
2023/10/20 14:38:14;;;;;;;;;;;19.90;89.20;;;;;;5031894;28;43109;-80
2023/10/20 14:40:39;;;;;;;;;;;20.30;89.40;;;;;;5039323;28;42854;-79
2023/10/20 14:43:05;;;;;;;;;;;20.30;89.40;;;;;;5044905;28;42854;-81
2023/10/20 14:45:31;;;;;;;;;;;20.30;90.10;;;;;;5045448;28;42981;-81
2023/10/20 14:47:56;;;;;;;;;;;20.30;89.70;;;;;;5038209;28;42990;-80
2023/10/20 14:50:23;;;;;;;;;;;20.20;89.90;;;;;;5035004;28;43176;-82
2023/10/20 14:52:53;;;;;;;;;;;20.20;90.00;;;;;;5031021;28;42958;-79
2023/10/20 14:55:19;;;;;;;;;;;20.00;88.40;;;;;;5041401;28;42878;-80
2023/10/20 14:57:50;;;;;;;;;;;20.10;89.90;;;;;;5024631;28;43673;-81
2023/10/20 15:00:21;;;;;;;;;;;20.20;90.00;;;;;;5006056;28;43142;-80
2023/10/20 15:02:55;;;;;;;;;;;20.10;89.70;;;;;;5006215;28;45567;-80
2023/10/20 15:05:20;;;;;;;;;;;20.30;89.60;;;;;;5024559;28;42765;-83
2023/10/20 15:12:58;;;;;;;;;;;20.40;88.60;;;;;;5806606;22;43518;-80